createdAt,value
2023-05-01T00:01:00.116Z,68.60
2023-05-01T00:03:28.425Z,68.30
2023-05-01T00:06:04.263Z,67.80
2023-05-01T00:08:32.461Z,67.30
2023-05-01T00:11:09.700Z,66.70
2023-05-01T00:13:36.694Z,66.20
2023-05-01T00:16:08.926Z,65.90
2023-05-01T00:18:36.305Z,65.80
2023-05-01T00:21:03.409Z,65.70
2023-05-01T00:23:30.450Z,65.50
2023-05-01T00:25:57.444Z,65.20
2023-05-01T00:28:24.376Z,65.10
2023-05-01T00:30:51.347Z,65.00
2023-05-01T00:33:18.594Z,64.70
2023-05-01T00:35:46.079Z,64.80
2023-05-01T00:38:13.322Z,64.70
2023-05-01T00:40:45.509Z,65.00
2023-05-01T00:43:13.583Z,64.50
2023-05-01T00:45:43.329Z,64.20
2023-05-01T00:48:11.004Z,64.20
2023-05-01T00:50:38.826Z,64.10
2023-05-01T00:53:06.457Z,64.10
2023-05-01T00:55:33.903Z,64.10
2023-05-01T00:58:02.222Z,64.00
2023-05-01T01:00:29.691Z,64.00
2023-05-01T01:02:57.203Z,64.00
2023-05-01T01:05:28.365Z,64.20
2023-05-01T01:08:19.556Z,64.30
2023-05-01T01:10:54.561Z,64.40
2023-05-01T01:13:29.110Z,64.40
2023-05-01T01:16:27.958Z,64.50
2023-05-01T01:19:24.860Z,64.50
2023-05-01T01:21:58.809Z,64.70
2023-05-01T01:24:46.012Z,64.80
2023-05-01T01:27:31.236Z,64.90
2023-05-01T01:30:30.051Z,65.00
2023-05-01T01:33:09.402Z,65.00
2023-05-01T01:35:39.917Z,65.10
2023-05-01T01:38:15.230Z,65.30
2023-05-01T01:40:53.741Z,65.20
2023-05-01T01:43:24.215Z,65.10
2023-05-01T01:45:57.946Z,65.10
2023-05-01T01:48:33.126Z,65.20
2023-05-01T01:51:04.950Z,65.00
2023-05-01T01:53:35.115Z,65.00
2023-05-01T01:56:06.205Z,65.00
2023-05-01T01:58:36.685Z,64.70
2023-05-01T02:01:06.336Z,64.50
2023-05-01T02:03:34.716Z,64.20
2023-05-01T02:06:05.314Z,64.20
2023-05-01T02:08:34.343Z,64.10
2023-05-01T02:11:02.447Z,64.10
2023-05-01T02:13:31.595Z,64.20
2023-05-01T02:16:00.805Z,64.40
2023-05-01T02:18:29.415Z,64.30
2023-05-01T02:20:59.719Z,64.20
2023-05-01T02:23:28.622Z,64.30
2023-05-01T02:25:57.835Z,64.30
2023-05-01T02:28:26.024Z,64.20
2023-05-01T02:30:53.152Z,64.00
2023-05-01T02:33:20.767Z,64.10
2023-05-01T02:35:47.947Z,63.90
2023-05-01T02:38:17.468Z,63.80
2023-05-01T02:40:50.170Z,63.70
2023-05-01T02:43:21.025Z,63.70
2023-05-01T02:45:51.533Z,63.50
2023-05-01T02:48:23.630Z,63.40
2023-05-01T02:50:52.481Z,63.40
2023-05-01T02:53:20.399Z,63.40
2023-05-01T02:55:54.672Z,63.20
2023-05-01T02:58:21.660Z,63.90
2023-05-01T03:00:50.029Z,63.20
2023-05-01T03:03:18.075Z,63.30
2023-05-01T03:05:45.159Z,62.90
2023-05-01T03:08:12.773Z,62.40
2023-05-01T03:10:43.249Z,62.10
2023-05-01T03:13:11.568Z,62.00
2023-05-01T03:15:39.048Z,62.20
2023-05-01T03:18:07.011Z,62.20
2023-05-01T03:20:34.223Z,62.00
2023-05-01T03:23:02.333Z,61.70
2023-05-01T03:25:30.635Z,61.30
2023-05-01T03:27:57.548Z,61.20
2023-05-01T03:30:25.008Z,61.20
2023-05-01T03:32:55.142Z,61.80
2023-05-01T03:35:28.330Z,60.50
2023-05-01T03:37:56.508Z,60.20
2023-05-01T03:40:56.084Z,60.10
2023-05-01T03:43:41.603Z,60.00
2023-05-01T03:46:17.430Z,59.80
2023-05-01T03:48:44.467Z,59.50
2023-05-01T03:51:11.515Z,59.60
2023-05-01T03:53:39.110Z,59.30
2023-05-01T03:56:07.472Z,59.10
2023-05-01T03:58:34.460Z,58.50
2023-05-01T04:01:02.935Z,58.10
2023-05-01T04:03:30.496Z,58.10
2023-05-01T04:05:57.683Z,57.80
2023-05-01T04:08:24.718Z,57.50
2023-05-01T04:10:51.778Z,57.40
2023-05-01T04:13:18.980Z,57.40
2023-05-01T04:15:47.162Z,57.10
2023-05-01T04:18:14.369Z,57.60
2023-05-01T04:20:42.242Z,57.10
2023-05-01T04:23:09.668Z,57.30
2023-05-01T04:25:37.453Z,57.00
2023-05-01T04:28:14.141Z,57.10
2023-05-01T04:30:41.187Z,57.20
2023-05-01T04:33:11.751Z,57.30
2023-05-01T04:35:40.771Z,57.40
2023-05-01T04:38:10.877Z,57.50
2023-05-01T04:40:39.608Z,57.50
2023-05-01T04:43:06.864Z,57.30
2023-05-01T04:45:36.150Z,57.20
2023-05-01T04:48:03.663Z,56.80
2023-05-01T04:50:31.152Z,56.80
2023-05-01T04:52:59.266Z,56.70
2023-05-01T04:55:26.255Z,56.60
2023-05-01T04:58:06.697Z,56.20
2023-05-01T05:00:35.685Z,56.40
2023-05-01T05:03:03.451Z,56.50
2023-05-01T05:05:31.290Z,56.70
2023-05-01T05:07:58.534Z,56.60
2023-05-01T05:10:32.367Z,56.70
2023-05-01T05:13:21.146Z,56.70
2023-05-01T05:15:55.681Z,56.70
2023-05-01T05:18:24.165Z,56.70
2023-05-01T05:20:51.739Z,57.50
2023-05-01T05:23:19.373Z,56.20
2023-05-01T05:25:46.297Z,56.30
2023-05-01T05:28:13.474Z,56.40
2023-05-01T05:30:41.646Z,56.40
2023-05-01T05:33:10.424Z,56.20
2023-05-01T05:35:37.409Z,56.10
2023-05-01T05:38:04.567Z,55.80
2023-05-01T05:40:35.240Z,55.60
2023-05-01T05:43:03.583Z,55.60
2023-05-01T05:45:34.378Z,55.60
2023-05-01T05:48:02.067Z,55.30
2023-05-01T05:50:32.147Z,55.30
2023-05-01T05:52:59.408Z,55.20
2023-05-01T05:55:28.110Z,55.10
2023-05-01T05:58:06.821Z,55.60
2023-05-01T06:00:34.667Z,54.80
2023-05-01T06:03:05.243Z,54.80
2023-05-01T06:05:34.328Z,54.70
2023-05-01T06:08:01.472Z,54.40
2023-05-01T06:10:28.413Z,54.00
2023-05-01T06:12:59.306Z,54.10
2023-05-01T06:15:41.600Z,54.00
2023-05-01T06:18:09.141Z,54.00
2023-05-01T06:20:37.005Z,54.10
2023-05-01T06:23:05.733Z,53.90
2023-05-01T06:25:41.424Z,53.60
2023-05-01T06:28:08.351Z,53.50
2023-05-01T06:30:35.892Z,53.30
2023-05-01T06:33:03.127Z,53.40
2023-05-01T06:35:30.578Z,53.30
2023-05-01T06:37:57.525Z,53.20
2023-05-01T06:40:24.546Z,52.90
2023-05-01T06:42:51.634Z,52.80
2023-05-01T06:45:18.925Z,52.80
2023-05-01T06:47:45.870Z,52.10
2023-05-01T06:50:12.905Z,51.80
2023-05-01T06:52:40.695Z,51.60
2023-05-01T06:55:08.288Z,51.20
2023-05-01T06:57:35.874Z,51.40
2023-05-01T07:00:03.488Z,51.20
2023-05-01T07:02:30.497Z,50.60
2023-05-01T07:04:57.745Z,50.00
2023-05-01T07:07:24.654Z,49.50
2023-05-01T07:09:51.640Z,49.60
2023-05-01T07:12:18.445Z,48.60
2023-05-01T07:14:45.221Z,48.70
2023-05-01T07:17:12.113Z,49.10
2023-05-01T07:19:39.508Z,49.90
2023-05-01T07:22:06.330Z,50.00
2023-05-01T07:24:33.161Z,49.70
2023-05-01T07:27:00.075Z,50.50
2023-05-01T07:29:26.905Z,49.70
2023-05-01T07:31:53.828Z,50.10
2023-05-01T07:34:20.642Z,50.00
2023-05-01T07:36:47.451Z,49.80
2023-05-01T07:39:14.883Z,49.90
2023-05-01T07:41:41.714Z,49.70
2023-05-01T07:44:09.033Z,50.10
2023-05-01T07:46:36.956Z,50.00
2023-05-01T07:49:04.284Z,50.20
2023-05-01T07:51:31.917Z,50.20
2023-05-01T07:53:59.096Z,50.30
2023-05-01T07:56:25.927Z,50.70
2023-05-01T07:58:52.747Z,49.70
2023-05-01T08:01:19.636Z,49.80
2023-05-01T08:03:47.494Z,49.70
2023-05-01T08:06:16.465Z,49.20
2023-05-01T08:08:43.426Z,48.80
2023-05-01T08:11:12.048Z,48.00
2023-05-01T08:13:38.848Z,47.80
2023-05-01T08:16:05.798Z,48.70
2023-05-01T08:18:32.667Z,48.60
2023-05-01T08:21:00.207Z,48.20
2023-05-01T08:23:27.197Z,47.90
2023-05-01T08:25:54.093Z,47.40
2023-05-01T08:28:21.354Z,47.50
2023-05-01T08:30:49.466Z,47.00
2023-05-01T08:33:16.552Z,47.20
2023-05-01T08:35:43.418Z,46.70
2023-05-01T08:38:13.350Z,46.20
2023-05-01T08:40:42.986Z,45.90
2023-05-01T08:43:10.593Z,45.30
2023-05-01T08:45:38.334Z,44.30
2023-05-01T08:48:06.678Z,44.10
2023-05-01T08:50:38.388Z,42.40
2023-05-01T08:53:06.525Z,41.20
2023-05-01T08:55:34.769Z,40.20
2023-05-01T08:58:01.994Z,39.70
2023-05-01T09:00:29.110Z,39.10
2023-05-01T09:02:56.322Z,38.50
2023-05-01T09:05:23.179Z,37.40
2023-05-01T09:07:50.048Z,37.60
2023-05-01T09:10:18.267Z,37.80
2023-05-01T09:12:47.029Z,37.30
2023-05-01T09:15:14.088Z,37.20
2023-05-01T09:17:42.339Z,38.00
2023-05-01T09:20:10.232Z,38.70
2023-05-01T09:22:38.017Z,39.10
2023-05-01T09:25:05.045Z,39.60
2023-05-01T09:27:35.807Z,39.20
2023-05-01T09:30:04.152Z,39.30
2023-05-01T09:32:31.175Z,40.00
2023-05-01T09:35:11.380Z,40.10
2023-05-01T09:37:38.309Z,40.50
2023-05-01T09:40:06.530Z,40.50
2023-05-01T09:42:34.297Z,40.80
2023-05-01T09:45:02.024Z,40.90
2023-05-01T09:47:29.496Z,42.20
2023-05-01T09:49:57.695Z,42.10
2023-05-01T09:52:28.833Z,42.20
2023-05-01T09:55:14.245Z,42.50
2023-05-01T09:57:42.818Z,42.10
2023-05-01T10:00:11.092Z,40.50
2023-05-01T10:02:38.746Z,38.40
2023-05-01T10:05:06.112Z,36.70
2023-05-01T10:07:33.393Z,35.60
2023-05-01T10:10:15.706Z,35.20
2023-05-01T10:12:42.600Z,35.50
2023-05-01T10:15:23.286Z,35.40
2023-05-01T10:17:52.517Z,36.10
2023-05-01T10:20:19.787Z,36.70
2023-05-01T10:22:46.770Z,37.60
2023-05-01T10:25:14.206Z,38.10
2023-05-01T10:27:41.853Z,38.20
2023-05-01T10:30:09.494Z,38.90
2023-05-01T10:32:37.591Z,39.70
2023-05-01T10:35:07.225Z,40.90
2023-05-01T10:37:46.508Z,42.20
2023-05-01T10:40:32.159Z,42.70
2023-05-01T10:43:17.541Z,42.30
2023-05-01T10:45:44.781Z,41.60
2023-05-01T10:48:11.871Z,40.50
2023-05-01T10:50:57.492Z,40.90
2023-05-01T10:53:24.345Z,41.10
2023-05-01T10:55:51.356Z,40.80
2023-05-01T10:58:36.724Z,41.10
2023-05-01T11:01:22.532Z,41.40
2023-05-01T11:03:49.427Z,41.60
2023-05-01T11:06:16.331Z,42.00
2023-05-01T11:08:44.924Z,41.50
2023-05-01T11:11:21.624Z,41.20
2023-05-01T11:14:00.669Z,41.20
2023-05-01T11:16:39.551Z,40.60
2023-05-01T11:19:07.895Z,39.70
2023-05-01T11:21:36.595Z,39.10
2023-05-01T11:24:04.086Z,39.40
2023-05-01T11:26:32.503Z,39.70
2023-05-01T11:29:00.563Z,39.20
2023-05-01T11:31:29.114Z,38.30
2023-05-01T11:33:56.456Z,38.80
2023-05-01T11:36:23.400Z,39.40
2023-05-01T11:38:54.464Z,39.30
2023-05-01T11:41:21.512Z,39.10
2023-05-01T11:43:56.346Z,38.00
2023-05-01T11:46:29.524Z,39.40
2023-05-01T11:48:57.016Z,38.80
2023-05-01T11:51:24.967Z,39.20
2023-05-01T11:54:01.691Z,39.10
2023-05-01T11:56:28.868Z,39.60
2023-05-01T11:58:56.584Z,39.20
2023-05-01T12:01:36.288Z,38.90
2023-05-01T12:04:03.930Z,39.20
2023-05-01T12:06:40.691Z,39.80
2023-05-01T12:09:10.743Z,40.50
2023-05-01T12:11:38.623Z,41.20
2023-05-01T12:14:05.688Z,41.60
2023-05-01T12:16:32.678Z,41.60
2023-05-01T12:18:59.710Z,42.00
2023-05-01T12:21:28.149Z,43.00
2023-05-01T12:23:55.092Z,43.20
2023-05-01T12:26:25.722Z,42.60
2023-05-01T12:28:56.596Z,42.50
2023-05-01T12:31:24.236Z,42.90
2023-05-01T12:33:55.595Z,43.60
2023-05-01T12:36:26.808Z,44.10
2023-05-01T12:38:56.227Z,44.70
2023-05-01T12:41:32.399Z,45.30
2023-05-01T12:43:59.249Z,45.80
2023-05-01T12:46:26.979Z,46.00
2023-05-01T12:48:54.726Z,45.30
2023-05-01T12:51:21.970Z,45.10
2023-05-01T12:53:49.136Z,44.70
2023-05-01T12:56:23.783Z,44.80
2023-05-01T12:58:51.869Z,44.90
2023-05-01T13:01:28.509Z,44.90
2023-05-01T13:03:58.029Z,44.80
2023-05-01T13:06:32.917Z,45.00
2023-05-01T13:09:07.625Z,45.50
2023-05-01T13:11:34.481Z,45.50
2023-05-01T13:14:07.757Z,45.30
2023-05-01T13:16:34.858Z,46.10
2023-05-01T13:19:01.846Z,46.10
2023-05-01T13:21:28.694Z,46.30
2023-05-01T13:23:59.827Z,46.60
2023-05-01T13:26:31.632Z,47.40
2023-05-01T13:28:59.980Z,47.80
2023-05-01T13:31:26.894Z,47.70
2023-05-01T13:33:54.689Z,48.40
2023-05-01T13:36:26.794Z,49.30
2023-05-01T13:38:55.934Z,48.20
2023-05-01T13:41:24.307Z,47.30
2023-05-01T13:43:52.120Z,46.90
2023-05-01T13:46:20.192Z,46.80
2023-05-01T13:48:47.799Z,47.20
2023-05-01T13:51:15.407Z,46.70
2023-05-01T13:53:42.549Z,46.50
2023-05-01T13:56:10.086Z,46.70
2023-05-01T13:58:36.975Z,47.00
2023-05-01T14:01:15.171Z,46.90
2023-05-01T14:03:43.109Z,46.50
2023-05-01T14:06:10.857Z,46.30
2023-05-01T14:08:37.821Z,47.10
2023-05-01T14:11:05.967Z,47.10
2023-05-01T14:13:33.401Z,46.90
2023-05-01T14:16:00.277Z,46.60
2023-05-01T14:18:27.731Z,45.60
2023-05-01T14:20:54.574Z,45.60
2023-05-01T14:23:22.990Z,45.60
2023-05-01T14:25:51.217Z,45.40
2023-05-01T14:28:18.322Z,44.80
2023-05-01T14:30:45.176Z,44.80
2023-05-01T14:33:13.089Z,45.00
2023-05-01T14:35:50.073Z,45.30
2023-05-01T14:38:17.774Z,44.60
2023-05-01T14:40:45.198Z,44.20
2023-05-01T14:43:16.448Z,44.40
2023-05-01T14:45:45.348Z,44.40
2023-05-01T14:48:29.981Z,44.60
2023-05-01T14:50:58.405Z,45.40
2023-05-01T14:53:27.368Z,45.70
2023-05-01T14:55:54.406Z,45.40
2023-05-01T14:58:21.529Z,45.50
2023-05-01T15:00:48.454Z,45.60
2023-05-01T15:03:15.315Z,45.00
2023-05-01T15:05:42.382Z,46.20
2023-05-01T15:08:09.186Z,48.30
2023-05-01T15:10:36.041Z,49.90
2023-05-01T15:13:02.858Z,50.40
2023-05-01T15:15:29.853Z,50.80
2023-05-01T15:17:56.686Z,50.30
2023-05-01T15:20:23.526Z,50.10
2023-05-01T15:22:50.399Z,49.20
2023-05-01T15:25:17.319Z,47.60
2023-05-01T15:27:45.941Z,47.90
2023-05-01T15:30:14.592Z,48.00
2023-05-01T15:32:41.554Z,47.90
2023-05-01T15:35:08.776Z,48.20
2023-05-01T15:37:35.727Z,48.10
2023-05-01T15:40:04.330Z,48.00
2023-05-01T15:42:31.467Z,47.80
2023-05-01T15:44:59.025Z,47.60
2023-05-01T15:47:26.457Z,47.80
2023-05-01T15:49:53.770Z,49.10
2023-05-01T15:52:20.693Z,50.30
2023-05-01T15:54:47.554Z,50.90
2023-05-01T15:57:14.440Z,51.60
2023-05-01T15:59:41.292Z,51.90
2023-05-01T16:02:11.210Z,52.50
2023-05-01T16:04:39.128Z,52.80
2023-05-01T16:07:07.634Z,53.00
2023-05-01T16:09:34.610Z,53.30
2023-05-01T16:12:03.243Z,53.10
2023-05-01T16:14:31.216Z,53.30
2023-05-01T16:16:58.148Z,53.50
2023-05-01T16:19:25.110Z,53.50
2023-05-01T16:21:52.284Z,53.90
2023-05-01T16:24:19.347Z,53.90
2023-05-01T16:26:46.518Z,54.10
2023-05-01T16:29:13.633Z,54.20
2023-05-01T16:31:47.784Z,54.30
2023-05-01T16:34:15.973Z,54.40
2023-05-01T16:36:43.546Z,54.50
2023-05-01T16:39:12.695Z,54.70
2023-05-01T16:41:45.715Z,54.70
2023-05-01T16:44:19.108Z,54.70
2023-05-01T16:46:55.908Z,54.30
2023-05-01T16:49:23.861Z,54.10
2023-05-01T16:51:51.140Z,54.30
2023-05-01T16:54:18.015Z,54.50
2023-05-01T16:56:44.901Z,54.80
2023-05-01T16:59:11.797Z,54.80
2023-05-01T17:01:38.691Z,55.00
2023-05-01T17:04:06.135Z,55.00
2023-05-01T17:06:33.372Z,55.10
2023-05-01T17:09:00.516Z,55.30
2023-05-01T17:11:30.342Z,55.50
2023-05-01T17:13:58.578Z,56.10
2023-05-01T17:16:25.477Z,56.20
2023-05-01T17:18:52.369Z,56.30
2023-05-01T17:21:19.221Z,56.70
2023-05-01T17:23:46.141Z,57.00
2023-05-01T17:26:16.020Z,57.30
2023-05-01T17:28:44.781Z,57.80
2023-05-01T17:31:11.689Z,58.40
2023-05-01T17:33:38.625Z,59.20
2023-05-01T17:36:05.602Z,60.40
2023-05-01T17:38:32.423Z,61.10
2023-05-01T17:40:59.349Z,61.80
2023-05-01T17:43:26.855Z,62.60
2023-05-01T17:45:53.825Z,63.10
2023-05-01T17:48:20.758Z,63.70
2023-05-01T17:50:47.726Z,64.20
2023-05-01T17:53:14.639Z,64.90
2023-05-01T17:55:41.720Z,65.10
2023-05-01T17:58:08.655Z,66.10
2023-05-01T18:00:35.837Z,66.80
2023-05-01T18:03:02.818Z,67.10
2023-05-01T18:05:29.959Z,67.40
2023-05-01T18:07:56.898Z,67.60
2023-05-01T18:10:23.826Z,68.00
2023-05-01T18:12:50.873Z,68.90
2023-05-01T18:15:22.574Z,70.00
2023-05-01T18:17:50.551Z,70.40
2023-05-01T18:20:17.829Z,70.60
2023-05-01T18:22:45.322Z,71.00
2023-05-01T18:25:13.513Z,71.50
2023-05-01T18:27:41.855Z,71.60
2023-05-01T18:30:09.645Z,72.00
2023-05-01T18:32:47.663Z,72.70
2023-05-01T18:35:16.748Z,73.50
2023-05-01T18:37:44.206Z,74.60
2023-05-01T18:40:11.686Z,75.50
2023-05-01T18:42:41.936Z,76.50
2023-05-01T18:45:12.391Z,77.40
2023-05-01T18:47:39.458Z,78.00
2023-05-01T18:50:07.312Z,78.80
2023-05-01T18:52:37.030Z,79.50
2023-05-01T18:55:04.458Z,80.00
2023-05-01T18:57:32.821Z,80.50
2023-05-01T19:00:01.327Z,81.10
2023-05-01T19:02:28.738Z,81.40
2023-05-01T19:04:57.952Z,81.70
2023-05-01T19:07:26.492Z,82.70
2023-05-01T19:09:53.968Z,82.10
2023-05-01T19:12:20.948Z,82.20
2023-05-01T19:14:47.884Z,82.40
2023-05-01T19:17:14.837Z,82.50
2023-05-01T19:19:41.841Z,82.50
2023-05-01T19:22:08.892Z,82.50
2023-05-01T19:24:36.101Z,82.90
2023-05-01T19:27:03.369Z,83.20
2023-05-01T19:29:33.846Z,83.50
2023-05-01T19:32:00.938Z,84.00
2023-05-01T19:34:28.591Z,84.20
2023-05-01T19:37:00.218Z,84.10
2023-05-01T19:39:27.295Z,84.10
2023-05-01T19:41:54.236Z,84.10
2023-05-01T19:44:22.896Z,84.30
2023-05-01T19:46:49.848Z,84.90
2023-05-01T19:49:16.889Z,85.20
2023-05-01T19:51:45.662Z,85.60
2023-05-01T19:54:12.617Z,85.90
2023-05-01T19:56:39.636Z,86.30
2023-05-01T19:59:07.136Z,87.20
2023-05-01T20:01:34.596Z,87.70
2023-05-01T20:04:01.591Z,88.00
2023-05-01T20:06:28.539Z,88.10
2023-05-01T20:08:55.486Z,88.30
2023-05-01T20:11:22.497Z,88.60
2023-05-01T20:13:49.412Z,88.90
2023-05-01T20:16:16.386Z,89.40
2023-05-01T20:18:43.348Z,90.00
2023-05-01T20:21:10.298Z,90.20
2023-05-01T20:23:37.528Z,90.40
2023-05-01T20:26:04.650Z,90.60
2023-05-01T20:28:31.639Z,90.90
2023-05-01T20:30:58.894Z,91.40
2023-05-01T20:33:25.920Z,91.70
2023-05-01T20:35:53.018Z,92.20
2023-05-01T20:38:21.627Z,93.00
2023-05-01T20:40:48.552Z,93.60
2023-05-01T20:43:15.578Z,94.20
2023-05-01T20:45:42.769Z,94.70
2023-05-01T20:48:11.030Z,95.10
2023-05-01T20:50:38.159Z,95.60
2023-05-01T20:53:05.176Z,96.20
2023-05-01T20:55:32.148Z,96.80
2023-05-01T20:57:59.092Z,97.40
2023-05-01T21:00:26.114Z,97.90
2023-05-01T21:02:53.195Z,98.30
2023-05-01T21:05:20.397Z,98.80
2023-05-01T21:07:47.994Z,99.30
2023-05-01T21:10:16.576Z,99.50
2023-05-01T21:12:43.676Z,99.70
2023-05-01T21:15:11.678Z,99.90
2023-05-01T21:17:40.752Z,99.90
2023-05-01T21:20:14.520Z,99.90
2023-05-01T21:22:41.996Z,99.90
2023-05-01T21:25:09.187Z,99.90
2023-05-01T21:27:41.795Z,99.90
2023-05-01T21:30:13.023Z,99.90
2023-05-01T21:32:40.480Z,99.90
2023-05-01T21:35:10.084Z,99.90
2023-05-01T21:37:37.403Z,99.90
2023-05-01T21:40:06.501Z,99.90
2023-05-01T21:42:40.314Z,99.90
2023-05-01T21:45:08.089Z,99.90
2023-05-01T21:47:41.621Z,99.90
2023-05-01T21:50:12.729Z,99.90
2023-05-01T21:52:40.950Z,99.90
2023-05-01T21:55:10.022Z,99.90
2023-05-01T21:57:38.763Z,99.90
2023-05-01T22:00:09.706Z,99.90
2023-05-01T22:02:43.709Z,99.90
2023-05-01T22:05:12.832Z,99.90
2023-05-01T22:07:40.925Z,99.90
2023-05-01T22:10:12.268Z,99.90
2023-05-01T22:12:40.330Z,99.90
2023-05-01T22:15:09.277Z,99.90
2023-05-01T22:17:37.196Z,99.90
2023-05-01T22:20:09.070Z,99.90
2023-05-01T22:22:36.980Z,99.90
2023-05-01T22:25:05.053Z,99.90
2023-05-01T22:27:32.254Z,99.90
2023-05-01T22:29:59.579Z,99.90
2023-05-01T22:32:28.284Z,99.90
2023-05-01T22:34:55.511Z,99.90
2023-05-01T22:37:22.650Z,99.90
2023-05-01T22:39:49.593Z,99.90
2023-05-01T22:42:16.610Z,99.90
2023-05-01T22:44:43.567Z,99.90
2023-05-01T22:47:10.696Z,99.90
2023-05-01T22:49:37.684Z,99.90
2023-05-01T22:52:04.803Z,99.90
2023-05-01T22:54:31.696Z,99.90
2023-05-01T22:56:58.638Z,99.90
2023-05-01T22:59:26.041Z,99.90
2023-05-01T23:01:53.061Z,99.90
2023-05-01T23:04:20.104Z,99.90
2023-05-01T23:06:47.105Z,99.90
2023-05-01T23:09:14.070Z,99.90
2023-05-01T23:11:41.598Z,99.90
2023-05-01T23:14:08.571Z,99.90
2023-05-01T23:16:41.416Z,99.90
2023-05-01T23:19:21.674Z,99.90
2023-05-01T23:21:50.041Z,99.90
2023-05-01T23:24:19.390Z,99.90
2023-05-01T23:26:46.388Z,99.90
2023-05-01T23:29:14.570Z,99.90
2023-05-01T23:31:46.508Z,99.90
2023-05-01T23:34:17.621Z,99.90
2023-05-01T23:36:47.702Z,99.90
2023-05-01T23:39:16.457Z,99.90
2023-05-01T23:41:43.899Z,99.90
2023-05-01T23:44:11.259Z,99.90
2023-05-01T23:46:38.501Z,99.90
2023-05-01T23:49:05.512Z,99.90
2023-05-01T23:51:32.877Z,99.90
2023-05-01T23:54:00.422Z,99.90
2023-05-01T23:56:27.416Z,99.90
2023-05-01T23:58:54.376Z,99.90
